sensor_id;sensor_type;location;lat;lon;timestamp;temperature;humidity
21312;DHT22;18076;52.154;10.570;2022-08-01T00:02:06;19.00;99.90
21312;DHT22;18076;52.154;10.570;2022-08-01T00:04:31;19.00;99.90
21312;DHT22;18076;52.154;10.570;2022-08-01T00:06:57;19.00;99.90
21312;DHT22;18076;52.154;10.570;2022-08-01T00:09:22;19.10;99.90
21312;DHT22;18076;52.154;10.570;2022-08-01T00:11:48;19.00;99.90
21312;DHT22;18076;52.154;10.570;2022-08-01T00:14:13;19.00;99.90
21312;DHT22;18076;52.154;10.570;2022-08-01T00:16:39;19.00;99.90
21312;DHT22;18076;52.154;10.570;2022-08-01T00:19:04;19.00;99.90
21312;DHT22;18076;52.154;10.570;2022-08-01T00:21:30;19.00;99.90
21312;DHT22;18076;52.154;10.570;2022-08-01T00:23:56;19.00;99.90
21312;DHT22;18076;52.154;10.570;2022-08-01T00:26:21;19.00;99.90
21312;DHT22;18076;52.154;10.570;2022-08-01T00:28:47;19.10;99.90
21312;DHT22;18076;52.154;10.570;2022-08-01T00:31:12;19.00;99.90
21312;DHT22;18076;52.154;10.570;2022-08-01T00:33:38;19.00;99.90
21312;DHT22;18076;52.154;10.570;2022-08-01T00:36:03;19.00;99.90
21312;DHT22;18076;52.154;10.570;2022-08-01T00:38:29;19.00;99.90
21312;DHT22;18076;52.154;10.570;2022-08-01T00:40:54;19.00;99.90
21312;DHT22;18076;52.154;10.570;2022-08-01T00:43:20;19.00;99.90
21312;DHT22;18076;52.154;10.570;2022-08-01T00:45:45;19.00;99.90
21312;DHT22;18076;52.154;10.570;2022-08-01T00:48:11;19.00;99.90
21312;DHT22;18076;52.154;10.570;2022-08-01T00:50:37;19.00;99.90
21312;DHT22;18076;52.154;10.570;2022-08-01T00:53:03;19.10;99.90
21312;DHT22;18076;52.154;10.570;2022-08-01T00:55:29;19.10;99.90
21312;DHT22;18076;52.154;10.570;2022-08-01T00:57:55;19.10;99.90
21312;DHT22;18076;52.154;10.570;2022-08-01T01:00:21;19.10;99.90
21312;DHT22;18076;52.154;10.570;2022-08-01T01:02:47;19.20;99.90
21312;DHT22;18076;52.154;10.570;2022-08-01T01:05:13;19.20;99.90
21312;DHT22;18076;52.154;10.570;2022-08-01T01:17:35;19.20;99.90
21312;DHT22;18076;52.154;10.570;2022-08-01T01:20:01;19.10;99.90
21312;DHT22;18076;52.154;10.570;2022-08-01T01:29:59;19.20;99.90
21312;DHT22;18076;52.154;10.570;2022-08-01T01:32:28;19.10;99.90
21312;DHT22;18076;52.154;10.570;2022-08-01T01:34:58;19.10;99.90
21312;DHT22;18076;52.154;10.570;2022-08-01T01:37:24;19.10;99.90
21312;DHT22;18076;52.154;10.570;2022-08-01T01:39:51;19.20;99.90
21312;DHT22;18076;52.154;10.570;2022-08-01T01:42:18;19.20;99.90
21312;DHT22;18076;52.154;10.570;2022-08-01T01:44:44;19.10;99.90
21312;DHT22;18076;52.154;10.570;2022-08-01T01:47:11;19.10;99.90
21312;DHT22;18076;52.154;10.570;2022-08-01T01:49:38;19.10;99.90
21312;DHT22;18076;52.154;10.570;2022-08-01T01:52:05;19.10;99.90
21312;DHT22;18076;52.154;10.570;2022-08-01T01:54:33;19.10;99.90
21312;DHT22;18076;52.154;10.570;2022-08-01T01:57:02;19.00;99.90
21312;DHT22;18076;52.154;10.570;2022-08-01T01:59:29;19.10;99.90
21312;DHT22;18076;52.154;10.570;2022-08-01T02:01:57;19.10;99.90
21312;DHT22;18076;52.154;10.570;2022-08-01T02:04:23;19.10;99.90
21312;DHT22;18076;52.154;10.570;2022-08-01T02:06:50;19.10;99.90
21312;DHT22;18076;52.154;10.570;2022-08-01T02:09:19;19.20;99.90
21312;DHT22;18076;52.154;10.570;2022-08-01T02:11:45;19.20;99.90
21312;DHT22;18076;52.154;10.570;2022-08-01T02:14:11;19.20;99.90
21312;DHT22;18076;52.154;10.570;2022-08-01T02:16:39;19.10;99.90
21312;DHT22;18076;52.154;10.570;2022-08-01T02:19:05;19.10;99.90
21312;DHT22;18076;52.154;10.570;2022-08-01T02:24:14;19.10;99.90
21312;DHT22;18076;52.154;10.570;2022-08-01T02:26:44;19.10;99.90
21312;DHT22;18076;52.154;10.570;2022-08-01T02:29:13;19.10;99.90
21312;DHT22;18076;52.154;10.570;2022-08-01T02:31:40;19.00;99.90
21312;DHT22;18076;52.154;10.570;2022-08-01T02:34:09;19.00;99.90
21312;DHT22;18076;52.154;10.570;2022-08-01T02:36:37;19.00;99.90
21312;DHT22;18076;52.154;10.570;2022-08-01T02:39:06;19.00;99.90
21312;DHT22;18076;52.154;10.570;2022-08-01T02:41:33;19.00;99.90
21312;DHT22;18076;52.154;10.570;2022-08-01T02:44:02;19.00;99.90
21312;DHT22;18076;52.154;10.570;2022-08-01T02:46:33;19.00;99.90
21312;DHT22;18076;52.154;10.570;2022-08-01T02:49:00;19.00;99.90
21312;DHT22;18076;52.154;10.570;2022-08-01T02:51:27;19.10;99.90
21312;DHT22;18076;52.154;10.570;2022-08-01T02:53:54;19.00;99.90
21312;DHT22;18076;52.154;10.570;2022-08-01T02:56:20;19.00;99.90
21312;DHT22;18076;52.154;10.570;2022-08-01T02:58:46;19.00;99.90
21312;DHT22;18076;52.154;10.570;2022-08-01T03:01:13;19.00;99.90
21312;DHT22;18076;52.154;10.570;2022-08-01T03:03:39;19.00;99.90
21312;DHT22;18076;52.154;10.570;2022-08-01T03:06:05;19.00;99.90
21312;DHT22;18076;52.154;10.570;2022-08-01T03:08:31;19.10;99.90
21312;DHT22;18076;52.154;10.570;2022-08-01T03:10:58;19.10;99.90
21312;DHT22;18076;52.154;10.570;2022-08-01T03:13:24;19.10;99.90
21312;DHT22;18076;52.154;10.570;2022-08-01T03:15:50;19.20;99.90
21312;DHT22;18076;52.154;10.570;2022-08-01T03:18:17;19.10;99.90
21312;DHT22;18076;52.154;10.570;2022-08-01T03:20:43;19.10;99.90
21312;DHT22;18076;52.154;10.570;2022-08-01T03:23:11;19.10;99.90
21312;DHT22;18076;52.154;10.570;2022-08-01T03:25:40;19.10;99.90
21312;DHT22;18076;52.154;10.570;2022-08-01T03:28:08;19.10;99.90
21312;DHT22;18076;52.154;10.570;2022-08-01T03:30:34;19.10;99.90
21312;DHT22;18076;52.154;10.570;2022-08-01T03:33:01;19.10;99.90
21312;DHT22;18076;52.154;10.570;2022-08-01T03:35:28;19.10;99.90
21312;DHT22;18076;52.154;10.570;2022-08-01T03:37:55;19.00;99.90
21312;DHT22;18076;52.154;10.570;2022-08-01T03:40:25;19.00;99.90
21312;DHT22;18076;52.154;10.570;2022-08-01T03:42:56;19.00;99.90
21312;DHT22;18076;52.154;10.570;2022-08-01T03:45:27;19.00;99.90
21312;DHT22;18076;52.154;10.570;2022-08-01T03:47:59;18.90;99.90
21312;DHT22;18076;52.154;10.570;2022-08-01T03:50:24;18.90;99.90
21312;DHT22;18076;52.154;10.570;2022-08-01T03:52:50;18.80;99.90
21312;DHT22;18076;52.154;10.570;2022-08-01T03:55:16;18.70;99.90
21312;DHT22;18076;52.154;10.570;2022-08-01T03:57:43;18.60;99.90
21312;DHT22;18076;52.154;10.570;2022-08-01T04:00:09;18.60;99.90
21312;DHT22;18076;52.154;10.570;2022-08-01T04:02:36;18.60;99.90
21312;DHT22;18076;52.154;10.570;2022-08-01T04:05:02;18.60;99.90
21312;DHT22;18076;52.154;10.570;2022-08-01T04:07:29;18.60;99.90
21312;DHT22;18076;52.154;10.570;2022-08-01T04:09:55;18.60;99.90
21312;DHT22;18076;52.154;10.570;2022-08-01T04:12:21;18.60;99.90
21312;DHT22;18076;52.154;10.570;2022-08-01T04:14:46;18.60;99.90
21312;DHT22;18076;52.154;10.570;2022-08-01T04:17:12;18.70;99.90
21312;DHT22;18076;52.154;10.570;2022-08-01T04:19:38;18.60;99.90
21312;DHT22;18076;52.154;10.570;2022-08-01T04:22:04;18.70;99.90
21312;DHT22;18076;52.154;10.570;2022-08-01T04:24:30;18.60;99.90
21312;DHT22;18076;52.154;10.570;2022-08-01T04:26:56;18.60;99.90
21312;DHT22;18076;52.154;10.570;2022-08-01T04:29:23;18.50;99.90
21312;DHT22;18076;52.154;10.570;2022-08-01T04:31:49;18.50;99.90
21312;DHT22;18076;52.154;10.570;2022-08-01T04:34:16;18.50;99.90
21312;DHT22;18076;52.154;10.570;2022-08-01T04:36:42;18.50;99.90
21312;DHT22;18076;52.154;10.570;2022-08-01T04:39:09;18.50;99.90
21312;DHT22;18076;52.154;10.570;2022-08-01T04:41:36;18.50;99.90
21312;DHT22;18076;52.154;10.570;2022-08-01T04:44:02;18.60;99.90
21312;DHT22;18076;52.154;10.570;2022-08-01T04:46:28;18.50;99.90
21312;DHT22;18076;52.154;10.570;2022-08-01T04:48:54;18.50;99.90
21312;DHT22;18076;52.154;10.570;2022-08-01T04:51:20;18.50;99.90
21312;DHT22;18076;52.154;10.570;2022-08-01T04:53:47;18.50;99.90
21312;DHT22;18076;52.154;10.570;2022-08-01T04:56:13;18.50;99.90
21312;DHT22;18076;52.154;10.570;2022-08-01T04:58:41;18.50;99.90
21312;DHT22;18076;52.154;10.570;2022-08-01T05:01:07;18.50;99.90
21312;DHT22;18076;52.154;10.570;2022-08-01T05:03:33;18.50;99.90
21312;DHT22;18076;52.154;10.570;2022-08-01T05:05:58;18.50;99.90
21312;DHT22;18076;52.154;10.570;2022-08-01T05:08:24;18.60;99.90
21312;DHT22;18076;52.154;10.570;2022-08-01T05:10:50;18.50;99.90
21312;DHT22;18076;52.154;10.570;2022-08-01T05:13:15;18.50;99.90
21312;DHT22;18076;52.154;10.570;2022-08-01T05:15:41;18.50;99.90
21312;DHT22;18076;52.154;10.570;2022-08-01T05:18:06;18.50;99.90
21312;DHT22;18076;52.154;10.570;2022-08-01T05:20:32;18.50;99.90
21312;DHT22;18076;52.154;10.570;2022-08-01T05:22:57;18.50;99.90
21312;DHT22;18076;52.154;10.570;2022-08-01T05:25:23;18.50;99.90
21312;DHT22;18076;52.154;10.570;2022-08-01T05:27:49;18.60;99.90
21312;DHT22;18076;52.154;10.570;2022-08-01T05:30:14;18.70;99.90
21312;DHT22;18076;52.154;10.570;2022-08-01T05:32:40;18.70;99.90
21312;DHT22;18076;52.154;10.570;2022-08-01T05:35:06;18.70;99.90
21312;DHT22;18076;52.154;10.570;2022-08-01T05:37:32;18.70;99.90
21312;DHT22;18076;52.154;10.570;2022-08-01T05:39:58;18.70;99.90
21312;DHT22;18076;52.154;10.570;2022-08-01T05:42:23;18.80;99.90
21312;DHT22;18076;52.154;10.570;2022-08-01T05:44:49;18.80;99.90
21312;DHT22;18076;52.154;10.570;2022-08-01T05:47:16;18.90;99.90
21312;DHT22;18076;52.154;10.570;2022-08-01T05:49:42;19.00;99.90
21312;DHT22;18076;52.154;10.570;2022-08-01T05:52:07;19.00;99.90
21312;DHT22;18076;52.154;10.570;2022-08-01T05:54:33;19.00;99.90
21312;DHT22;18076;52.154;10.570;2022-08-01T05:56:58;19.00;99.90
21312;DHT22;18076;52.154;10.570;2022-08-01T05:59:27;19.00;99.90
21312;DHT22;18076;52.154;10.570;2022-08-01T06:01:53;19.00;99.90
21312;DHT22;18076;52.154;10.570;2022-08-01T06:04:18;19.10;99.90
21312;DHT22;18076;52.154;10.570;2022-08-01T06:06:44;19.10;99.90
21312;DHT22;18076;52.154;10.570;2022-08-01T06:09:09;19.00;99.90
21312;DHT22;18076;52.154;10.570;2022-08-01T06:11:35;19.00;99.90
21312;DHT22;18076;52.154;10.570;2022-08-01T06:14:00;19.00;99.90
21312;DHT22;18076;52.154;10.570;2022-08-01T06:16:26;19.00;99.90
21312;DHT22;18076;52.154;10.570;2022-08-01T06:18:52;19.00;99.90
21312;DHT22;18076;52.154;10.570;2022-08-01T06:21:17;19.10;99.90
21312;DHT22;18076;52.154;10.570;2022-08-01T06:23:43;19.20;99.90
21312;DHT22;18076;52.154;10.570;2022-08-01T06:26:08;19.40;99.90
21312;DHT22;18076;52.154;10.570;2022-08-01T06:28:35;19.50;99.90
21312;DHT22;18076;52.154;10.570;2022-08-01T06:31:00;19.60;99.90
21312;DHT22;18076;52.154;10.570;2022-08-01T06:33:26;19.60;99.90
21312;DHT22;18076;52.154;10.570;2022-08-01T06:35:52;19.50;99.90
21312;DHT22;18076;52.154;10.570;2022-08-01T06:38:17;19.50;99.90
21312;DHT22;18076;52.154;10.570;2022-08-01T06:40:43;19.50;99.90
21312;DHT22;18076;52.154;10.570;2022-08-01T06:43:08;19.60;99.90
21312;DHT22;18076;52.154;10.570;2022-08-01T06:45:35;19.70;99.90
21312;DHT22;18076;52.154;10.570;2022-08-01T06:48:01;19.80;99.90
21312;DHT22;18076;52.154;10.570;2022-08-01T06:50:27;19.90;99.90
21312;DHT22;18076;52.154;10.570;2022-08-01T06:52:53;19.90;99.90
21312;DHT22;18076;52.154;10.570;2022-08-01T06:55:18;19.90;99.90
21312;DHT22;18076;52.154;10.570;2022-08-01T06:57:51;20.00;99.90
21312;DHT22;18076;52.154;10.570;2022-08-01T07:00:17;19.90;99.90
21312;DHT22;18076;52.154;10.570;2022-08-01T07:02:46;19.80;99.90
21312;DHT22;18076;52.154;10.570;2022-08-01T07:05:12;19.70;99.90
21312;DHT22;18076;52.154;10.570;2022-08-01T07:07:37;19.60;99.90
21312;DHT22;18076;52.154;10.570;2022-08-01T07:10:03;19.70;99.90
21312;DHT22;18076;52.154;10.570;2022-08-01T07:12:29;19.60;99.90
21312;DHT22;18076;52.154;10.570;2022-08-01T07:14:54;19.50;99.90
21312;DHT22;18076;52.154;10.570;2022-08-01T07:17:20;19.50;99.90
21312;DHT22;18076;52.154;10.570;2022-08-01T07:19:46;19.40;99.90
21312;DHT22;18076;52.154;10.570;2022-08-01T07:22:11;19.50;99.90
21312;DHT22;18076;52.154;10.570;2022-08-01T07:24:37;19.30;99.90
21312;DHT22;18076;52.154;10.570;2022-08-01T07:27:03;19.30;99.90
21312;DHT22;18076;52.154;10.570;2022-08-01T07:29:28;19.20;99.90
21312;DHT22;18076;52.154;10.570;2022-08-01T07:31:54;19.10;99.90
21312;DHT22;18076;52.154;10.570;2022-08-01T07:34:21;18.90;99.90
21312;DHT22;18076;52.154;10.570;2022-08-01T07:36:47;18.70;99.90
21312;DHT22;18076;52.154;10.570;2022-08-01T07:39:12;18.60;99.90
21312;DHT22;18076;52.154;10.570;2022-08-01T07:41:38;18.60;99.90
21312;DHT22;18076;52.154;10.570;2022-08-01T07:44:04;18.60;99.90
21312;DHT22;18076;52.154;10.570;2022-08-01T07:46:29;18.60;99.90
21312;DHT22;18076;52.154;10.570;2022-08-01T07:48:56;18.60;99.90
21312;DHT22;18076;52.154;10.570;2022-08-01T07:51:21;18.60;99.90
21312;DHT22;18076;52.154;10.570;2022-08-01T07:53:47;18.70;99.90
21312;DHT22;18076;52.154;10.570;2022-08-01T07:56:12;18.60;99.90
21312;DHT22;18076;52.154;10.570;2022-08-01T07:58:38;18.80;99.90
21312;DHT22;18076;52.154;10.570;2022-08-01T08:01:04;18.90;99.90
21312;DHT22;18076;52.154;10.570;2022-08-01T08:03:29;19.00;99.90
21312;DHT22;18076;52.154;10.570;2022-08-01T08:05:55;19.10;99.90
21312;DHT22;18076;52.154;10.570;2022-08-01T08:08:21;19.30;99.90
21312;DHT22;18076;52.154;10.570;2022-08-01T08:10:46;19.50;99.90
21312;DHT22;18076;52.154;10.570;2022-08-01T08:13:12;19.80;99.90
21312;DHT22;18076;52.154;10.570;2022-08-01T08:15:37;20.00;99.90
21312;DHT22;18076;52.154;10.570;2022-08-01T08:18:03;20.00;99.90
21312;DHT22;18076;52.154;10.570;2022-08-01T08:20:29;20.20;99.90
21312;DHT22;18076;52.154;10.570;2022-08-01T08:22:55;20.10;99.90
21312;DHT22;18076;52.154;10.570;2022-08-01T08:25:22;20.30;99.90
21312;DHT22;18076;52.154;10.570;2022-08-01T08:27:47;20.40;99.90
21312;DHT22;18076;52.154;10.570;2022-08-01T08:30:13;20.70;99.90
21312;DHT22;18076;52.154;10.570;2022-08-01T08:32:39;20.70;99.90
21312;DHT22;18076;52.154;10.570;2022-08-01T08:35:05;20.80;99.90
21312;DHT22;18076;52.154;10.570;2022-08-01T08:37:31;20.90;99.90
21312;DHT22;18076;52.154;10.570;2022-08-01T08:39:56;21.10;99.90
21312;DHT22;18076;52.154;10.570;2022-08-01T08:42:22;21.20;99.90
21312;DHT22;18076;52.154;10.570;2022-08-01T08:44:47;21.30;99.90
21312;DHT22;18076;52.154;10.570;2022-08-01T08:47:14;21.30;99.90
21312;DHT22;18076;52.154;10.570;2022-08-01T08:49:40;21.40;99.90
21312;DHT22;18076;52.154;10.570;2022-08-01T08:52:07;21.40;99.90
21312;DHT22;18076;52.154;10.570;2022-08-01T08:54:32;21.30;99.90
21312;DHT22;18076;52.154;10.570;2022-08-01T08:57:01;21.20;99.90
21312;DHT22;18076;52.154;10.570;2022-08-01T08:59:27;21.40;99.90
21312;DHT22;18076;52.154;10.570;2022-08-01T09:01:53;21.50;99.90
21312;DHT22;18076;52.154;10.570;2022-08-01T09:04:20;21.60;99.90
21312;DHT22;18076;52.154;10.570;2022-08-01T09:06:46;21.70;99.90
21312;DHT22;18076;52.154;10.570;2022-08-01T09:09:11;21.70;99.90
21312;DHT22;18076;52.154;10.570;2022-08-01T09:11:37;21.70;99.90
21312;DHT22;18076;52.154;10.570;2022-08-01T09:16:29;21.90;99.90
21312;DHT22;18076;52.154;10.570;2022-08-01T09:19:03;22.10;99.90
21312;DHT22;18076;52.154;10.570;2022-08-01T09:21:31;22.30;99.90
21312;DHT22;18076;52.154;10.570;2022-08-01T09:23:56;22.60;99.90
21312;DHT22;18076;52.154;10.570;2022-08-01T09:26:31;22.80;99.90
21312;DHT22;18076;52.154;10.570;2022-08-01T09:28:57;22.80;99.90
21312;DHT22;18076;52.154;10.570;2022-08-01T09:31:23;22.60;99.90
21312;DHT22;18076;52.154;10.570;2022-08-01T09:36:18;21.80;99.90
21312;DHT22;18076;52.154;10.570;2022-08-01T09:38:44;21.50;99.90
21312;DHT22;18076;52.154;10.570;2022-08-01T09:41:09;21.30;99.90
21312;DHT22;18076;52.154;10.570;2022-08-01T09:43:36;21.20;99.90
21312;DHT22;18076;52.154;10.570;2022-08-01T09:46:09;21.10;99.90
21312;DHT22;18076;52.154;10.570;2022-08-01T09:48:36;21.10;99.90
21312;DHT22;18076;52.154;10.570;2022-08-01T09:51:04;21.10;99.90
21312;DHT22;18076;52.154;10.570;2022-08-01T09:53:44;21.00;99.90
21312;DHT22;18076;52.154;10.570;2022-08-01T09:56:10;20.90;99.90
21312;DHT22;18076;52.154;10.570;2022-08-01T09:58:49;20.70;99.90
21312;DHT22;18076;52.154;10.570;2022-08-01T10:01:14;20.60;99.90
21312;DHT22;18076;52.154;10.570;2022-08-01T10:03:40;20.50;99.90
21312;DHT22;18076;52.154;10.570;2022-08-01T10:06:21;20.40;99.90
21312;DHT22;18076;52.154;10.570;2022-08-01T10:08:47;20.50;99.90
21312;DHT22;18076;52.154;10.570;2022-08-01T10:11:13;20.60;99.90
21312;DHT22;18076;52.154;10.570;2022-08-01T10:13:38;20.80;99.90
21312;DHT22;18076;52.154;10.570;2022-08-01T10:16:05;21.20;99.90
21312;DHT22;18076;52.154;10.570;2022-08-01T10:18:31;21.50;99.90
21312;DHT22;18076;52.154;10.570;2022-08-01T10:20:57;21.30;99.90
21312;DHT22;18076;52.154;10.570;2022-08-01T10:23:24;21.50;99.90
21312;DHT22;18076;52.154;10.570;2022-08-01T10:25:50;22.00;99.90
21312;DHT22;18076;52.154;10.570;2022-08-01T10:28:17;22.70;99.90
21312;DHT22;18076;52.154;10.570;2022-08-01T10:30:44;23.10;99.90
21312;DHT22;18076;52.154;10.570;2022-08-01T10:33:10;23.50;99.90
21312;DHT22;18076;52.154;10.570;2022-08-01T10:35:36;23.70;99.90
21312;DHT22;18076;52.154;10.570;2022-08-01T10:38:02;24.40;99.90
21312;DHT22;18076;52.154;10.570;2022-08-01T10:40:28;24.70;99.90
21312;DHT22;18076;52.154;10.570;2022-08-01T10:42:54;24.30;99.90
21312;DHT22;18076;52.154;10.570;2022-08-01T10:45:21;24.00;99.90
21312;DHT22;18076;52.154;10.570;2022-08-01T10:47:53;23.50;99.90
21312;DHT22;18076;52.154;10.570;2022-08-01T10:50:27;22.90;99.90
21312;DHT22;18076;52.154;10.570;2022-08-01T10:53:06;22.50;99.90
21312;DHT22;18076;52.154;10.570;2022-08-01T10:55:44;22.30;99.90
21312;DHT22;18076;52.154;10.570;2022-08-01T10:58:10;21.90;99.90
21312;DHT22;18076;52.154;10.570;2022-08-01T11:00:36;21.50;99.90
21312;DHT22;18076;52.154;10.570;2022-08-01T11:03:02;21.20;99.90
21312;DHT22;18076;52.154;10.570;2022-08-01T11:05:33;21.20;99.90
21312;DHT22;18076;52.154;10.570;2022-08-01T11:08:03;21.30;99.90
21312;DHT22;18076;52.154;10.570;2022-08-01T11:12:59;22.10;99.90
21312;DHT22;18076;52.154;10.570;2022-08-01T11:15:28;22.50;99.90
21312;DHT22;18076;52.154;10.570;2022-08-01T11:17:54;22.90;99.90
21312;DHT22;18076;52.154;10.570;2022-08-01T11:20:21;23.20;99.90
21312;DHT22;18076;52.154;10.570;2022-08-01T11:25:25;23.00;99.90
21312;DHT22;18076;52.154;10.570;2022-08-01T11:30:35;22.80;99.90
21312;DHT22;18076;52.154;10.570;2022-08-01T11:33:01;22.80;99.90
21312;DHT22;18076;52.154;10.570;2022-08-01T11:35:26;22.60;99.90
21312;DHT22;18076;52.154;10.570;2022-08-01T11:37:53;22.60;99.90
21312;DHT22;18076;52.154;10.570;2022-08-01T11:42:50;23.20;99.90
21312;DHT22;18076;52.154;10.570;2022-08-01T11:45:16;23.30;99.90
21312;DHT22;18076;52.154;10.570;2022-08-01T11:47:48;23.50;99.90
21312;DHT22;18076;52.154;10.570;2022-08-01T11:52:58;24.50;99.90
21312;DHT22;18076;52.154;10.570;2022-08-01T11:55:24;24.40;99.90
21312;DHT22;18076;52.154;10.570;2022-08-01T11:57:49;24.30;99.90
21312;DHT22;18076;52.154;10.570;2022-08-01T12:00:16;24.30;99.90
21312;DHT22;18076;52.154;10.570;2022-08-01T12:02:42;24.20;99.90
21312;DHT22;18076;52.154;10.570;2022-08-01T12:05:11;24.30;99.90
21312;DHT22;18076;52.154;10.570;2022-08-01T12:07:37;24.10;99.90
21312;DHT22;18076;52.154;10.570;2022-08-01T12:10:05;24.10;99.90
21312;DHT22;18076;52.154;10.570;2022-08-01T12:12:31;23.90;99.90
21312;DHT22;18076;52.154;10.570;2022-08-01T12:14:57;23.70;99.90
21312;DHT22;18076;52.154;10.570;2022-08-01T12:19:54;24.00;99.90
21312;DHT22;18076;52.154;10.570;2022-08-01T12:22:21;23.80;99.90
21312;DHT22;18076;52.154;10.570;2022-08-01T12:24:47;23.70;99.90
21312;DHT22;18076;52.154;10.570;2022-08-01T12:27:12;23.80;99.90
21312;DHT22;18076;52.154;10.570;2022-08-01T12:29:48;23.90;99.90
21312;DHT22;18076;52.154;10.570;2022-08-01T12:34:52;23.60;99.90
21312;DHT22;18076;52.154;10.570;2022-08-01T12:37:18;23.50;99.90
21312;DHT22;18076;52.154;10.570;2022-08-01T12:39:44;23.30;99.90
21312;DHT22;18076;52.154;10.570;2022-08-01T12:42:11;23.30;99.90
21312;DHT22;18076;52.154;10.570;2022-08-01T12:44:37;23.50;99.90
21312;DHT22;18076;52.154;10.570;2022-08-01T12:47:03;23.70;99.90
21312;DHT22;18076;52.154;10.570;2022-08-01T12:49:30;23.60;99.90
21312;DHT22;18076;52.154;10.570;2022-08-01T12:51:56;23.70;99.90
21312;DHT22;18076;52.154;10.570;2022-08-01T12:54:22;23.70;99.90
21312;DHT22;18076;52.154;10.570;2022-08-01T12:56:51;23.70;99.90
21312;DHT22;18076;52.154;10.570;2022-08-01T12:59:22;23.50;99.90
21312;DHT22;18076;52.154;10.570;2022-08-01T13:01:50;23.20;99.90
21312;DHT22;18076;52.154;10.570;2022-08-01T13:04:16;23.10;99.90
21312;DHT22;18076;52.154;10.570;2022-08-01T13:06:41;23.00;99.90
21312;DHT22;18076;52.154;10.570;2022-08-01T13:09:10;22.90;99.90
21312;DHT22;18076;52.154;10.570;2022-08-01T13:11:36;23.00;99.90
21312;DHT22;18076;52.154;10.570;2022-08-01T13:14:02;23.10;99.90
21312;DHT22;18076;52.154;10.570;2022-08-01T13:16:27;23.30;99.90
21312;DHT22;18076;52.154;10.570;2022-08-01T13:18:54;23.50;99.90
21312;DHT22;18076;52.154;10.570;2022-08-01T13:21:25;23.50;99.90
21312;DHT22;18076;52.154;10.570;2022-08-01T13:24:07;23.60;99.90
21312;DHT22;18076;52.154;10.570;2022-08-01T13:26:38;23.50;99.90
21312;DHT22;18076;52.154;10.570;2022-08-01T13:29:04;23.60;99.90
21312;DHT22;18076;52.154;10.570;2022-08-01T13:31:34;23.60;99.90
21312;DHT22;18076;52.154;10.570;2022-08-01T13:33:59;23.60;99.90
21312;DHT22;18076;52.154;10.570;2022-08-01T13:36:25;23.60;99.90
21312;DHT22;18076;52.154;10.570;2022-08-01T13:38:55;23.60;99.90
21312;DHT22;18076;52.154;10.570;2022-08-01T13:41:39;23.60;99.90
21312;DHT22;18076;52.154;10.570;2022-08-01T13:44:04;23.90;99.90
21312;DHT22;18076;52.154;10.570;2022-08-01T13:46:31;24.00;99.90
21312;DHT22;18076;52.154;10.570;2022-08-01T13:48:56;23.90;99.90
21312;DHT22;18076;52.154;10.570;2022-08-01T13:51:22;23.90;99.90
21312;DHT22;18076;52.154;10.570;2022-08-01T13:53:47;23.80;99.90
21312;DHT22;18076;52.154;10.570;2022-08-01T13:56:13;23.80;99.90
21312;DHT22;18076;52.154;10.570;2022-08-01T13:58:38;23.90;99.90
21312;DHT22;18076;52.154;10.570;2022-08-01T14:01:04;23.90;99.90
21312;DHT22;18076;52.154;10.570;2022-08-01T14:03:30;24.00;99.90
21312;DHT22;18076;52.154;10.570;2022-08-01T14:05:56;24.00;99.90
21312;DHT22;18076;52.154;10.570;2022-08-01T14:08:21;23.70;99.90
21312;DHT22;18076;52.154;10.570;2022-08-01T14:10:46;23.80;99.90
21312;DHT22;18076;52.154;10.570;2022-08-01T14:13:12;23.90;99.90
21312;DHT22;18076;52.154;10.570;2022-08-01T14:15:38;23.70;99.90
21312;DHT22;18076;52.154;10.570;2022-08-01T14:18:03;23.60;99.90
21312;DHT22;18076;52.154;10.570;2022-08-01T14:20:29;23.40;99.90
21312;DHT22;18076;52.154;10.570;2022-08-01T14:22:55;23.40;99.90
21312;DHT22;18076;52.154;10.570;2022-08-01T14:25:20;23.40;99.90
21312;DHT22;18076;52.154;10.570;2022-08-01T14:27:46;23.60;99.90
21312;DHT22;18076;52.154;10.570;2022-08-01T14:30:11;23.50;99.90
21312;DHT22;18076;52.154;10.570;2022-08-01T14:32:37;23.50;99.90
21312;DHT22;18076;52.154;10.570;2022-08-01T14:35:03;23.50;99.90
21312;DHT22;18076;52.154;10.570;2022-08-01T14:37:30;23.50;99.90
21312;DHT22;18076;52.154;10.570;2022-08-01T14:39:56;23.50;99.90
21312;DHT22;18076;52.154;10.570;2022-08-01T14:42:22;23.60;99.90
21312;DHT22;18076;52.154;10.570;2022-08-01T14:44:47;23.60;99.90
21312;DHT22;18076;52.154;10.570;2022-08-01T14:47:13;23.50;99.90
21312;DHT22;18076;52.154;10.570;2022-08-01T14:49:38;23.50;99.90
21312;DHT22;18076;52.154;10.570;2022-08-01T14:52:04;23.40;99.90
21312;DHT22;18076;52.154;10.570;2022-08-01T14:54:29;23.40;99.90
21312;DHT22;18076;52.154;10.570;2022-08-01T14:56:55;23.50;99.90
21312;DHT22;18076;52.154;10.570;2022-08-01T14:59:20;23.50;99.90
21312;DHT22;18076;52.154;10.570;2022-08-01T15:01:46;23.60;99.90
21312;DHT22;18076;52.154;10.570;2022-08-01T15:04:11;23.80;99.90
21312;DHT22;18076;52.154;10.570;2022-08-01T15:06:38;24.00;99.90
21312;DHT22;18076;52.154;10.570;2022-08-01T15:09:03;24.30;99.90
21312;DHT22;18076;52.154;10.570;2022-08-01T15:11:29;24.60;99.90
21312;DHT22;18076;52.154;10.570;2022-08-01T15:13:54;24.70;99.90
21312;DHT22;18076;52.154;10.570;2022-08-01T15:16:38;24.80;99.90
21312;DHT22;18076;52.154;10.570;2022-08-01T15:19:04;25.10;99.90
21312;DHT22;18076;52.154;10.570;2022-08-01T15:21:29;25.20;99.90
21312;DHT22;18076;52.154;10.570;2022-08-01T15:23:55;25.40;99.90
21312;DHT22;18076;52.154;10.570;2022-08-01T15:26:20;25.30;99.90
21312;DHT22;18076;52.154;10.570;2022-08-01T15:28:46;25.00;99.90
21312;DHT22;18076;52.154;10.570;2022-08-01T15:31:11;24.60;99.90
21312;DHT22;18076;52.154;10.570;2022-08-01T15:33:37;24.50;99.90
21312;DHT22;18076;52.154;10.570;2022-08-01T15:36:03;24.30;99.90
21312;DHT22;18076;52.154;10.570;2022-08-01T15:38:29;24.10;99.90
21312;DHT22;18076;52.154;10.570;2022-08-01T15:40:54;24.00;99.90
21312;DHT22;18076;52.154;10.570;2022-08-01T15:43:20;24.00;99.90
21312;DHT22;18076;52.154;10.570;2022-08-01T15:45:45;24.10;99.90
21312;DHT22;18076;52.154;10.570;2022-08-01T15:48:11;24.10;99.90
21312;DHT22;18076;52.154;10.570;2022-08-01T15:50:36;24.00;99.90
21312;DHT22;18076;52.154;10.570;2022-08-01T15:53:03;23.90;99.90
21312;DHT22;18076;52.154;10.570;2022-08-01T15:55:29;23.60;99.90